Time;durP1;ratioP1;P1;durP2;ratioP2;P2;SDS_P1;SDS_P2;PMS_P1;PMS_P2;Temp;Humidity;BMP_temperature;BMP_pressure;BME280_temperature;BME280_humidity;BME280_pressure;Samples;Min_cycle;Max_cycle;Signal;HPM_P1;HPM_P2
2022/09/14 00:00:47;;;;;;;;;;;14.90;99.90;;;;;;4964944;28;20381;-73
2022/09/14 00:03:12;;;;;;;;;;;14.90;99.90;;;;;;4981642;28;19926;-73
2022/09/14 00:05:38;;;;;;;;;;;14.90;99.90;;;;;;4983028;28;20017;-73
2022/09/14 00:08:03;;;;;;;;;;;14.90;99.90;;;;;;4984642;28;19977;-73
2022/09/14 00:10:29;;;;;;;;;;;14.90;99.90;;;;;;4984638;28;19989;-73
2022/09/14 00:12:55;;;;;;;;;;;14.90;99.90;;;;;;4984975;28;19925;-73
2022/09/14 00:15:20;;;;;;;;;;;15.00;99.90;;;;;;4984150;28;19926;-73
2022/09/14 00:17:46;;;;;;;;;;;15.00;99.90;;;;;;4983664;28;19930;-73
2022/09/14 00:20:11;;;;;;;;;;;15.00;99.90;;;;;;4983448;28;19929;-73
2022/09/14 00:22:37;;;;;;;;;;;15.00;99.90;;;;;;4982962;28;19926;-74
2022/09/14 00:25:02;;;;;;;;;;;15.00;99.90;;;;;;4984067;28;19926;-74
2022/09/14 00:27:28;;;;;;;;;;;15.00;99.90;;;;;;4984624;28;19926;-73
2022/09/14 00:29:54;;;;;;;;;;;15.00;99.90;;;;;;4982661;28;19922;-73
2022/09/14 00:32:19;;;;;;;;;;;15.00;99.90;;;;;;4983889;28;19936;-73
2022/09/14 00:34:44;;;;;;;;;;;15.00;99.90;;;;;;4969121;28;19926;-73
2022/09/14 00:37:10;;;;;;;;;;;15.00;99.90;;;;;;4963094;28;20012;-73
2022/09/14 00:39:36;;;;;;;;;;;15.00;99.90;;;;;;4964395;28;20305;-73
2022/09/14 00:42:03;;;;;;;;;;;15.10;99.90;;;;;;4964656;28;19922;-74
2022/09/14 00:44:28;;;;;;;;;;;15.00;99.90;;;;;;4964716;28;19926;-73
2022/09/14 00:46:55;;;;;;;;;;;15.10;99.90;;;;;;4964099;28;20360;-73
2022/09/14 00:49:25;;;;;;;;;;;15.10;99.90;;;;;;4963844;28;20023;-73
2022/09/14 00:51:57;;;;;;;;;;;15.10;99.90;;;;;;4962944;28;20456;-73
2022/09/14 00:54:22;;;;;;;;;;;15.10;99.90;;;;;;4963366;28;19930;-73
2022/09/14 00:56:48;;;;;;;;;;;15.10;99.90;;;;;;4964319;28;19926;-73
2022/09/14 00:59:25;;;;;;;;;;;15.10;99.90;;;;;;4964045;28;19922;-73
2022/09/14 01:01:51;;;;;;;;;;;15.10;99.90;;;;;;4963744;28;20000;-73
2022/09/14 01:04:16;;;;;;;;;;;15.10;99.90;;;;;;4961721;28;20344;-73
2022/09/14 01:06:44;;;;;;;;;;;15.10;99.90;;;;;;4964220;28;19927;-73
2022/09/14 01:09:22;;;;;;;;;;;15.00;99.90;;;;;;4979228;28;19927;-73
2022/09/14 01:12:05;;;;;;;;;;;15.00;99.90;;;;;;4963890;28;19932;-73
2022/09/14 01:14:44;;;;;;;;;;;15.00;99.90;;;;;;4963933;28;19933;-74
2022/09/14 01:17:13;;;;;;;;;;;15.00;99.90;;;;;;4962991;28;19926;-73
2022/09/14 01:19:50;;;;;;;;;;;15.00;99.90;;;;;;4962815;28;20459;-73
2022/09/14 01:22:19;;;;;;;;;;;14.90;99.90;;;;;;4963946;28;20403;-73
2022/09/14 01:24:48;;;;;;;;;;;14.90;99.90;;;;;;4963972;28;19977;-73
2022/09/14 01:27:13;;;;;;;;;;;14.90;99.90;;;;;;4971727;28;20033;-73
2022/09/14 01:29:57;;;;;;;;;;;14.90;99.90;;;;;;4983418;28;19950;-73
2022/09/14 01:32:52;;;;;;;;;;;14.90;99.90;;;;;;4962603;28;20481;-73
2022/09/14 01:35:20;;;;;;;;;;;14.80;99.90;;;;;;4955225;28;20016;-73
2022/09/14 01:37:50;;;;;;;;;;;14.80;99.90;;;;;;4963781;28;19961;-73
2022/09/14 01:40:19;;;;;;;;;;;14.80;99.90;;;;;;4964500;28;20061;-73
2022/09/14 01:42:45;;;;;;;;;;;14.80;99.90;;;;;;4963307;28;20029;-73
2022/09/14 01:45:15;;;;;;;;;;;14.80;99.90;;;;;;4965104;28;19926;-74
2022/09/14 01:47:59;;;;;;;;;;;14.80;99.90;;;;;;4967107;28;19926;-74
2022/09/14 01:50:24;;;;;;;;;;;14.80;99.90;;;;;;4966982;28;19929;-73
2022/09/14 01:53:14;;;;;;;;;;;14.80;99.90;;;;;;4982620;28;20073;-73
2022/09/14 01:55:41;;;;;;;;;;;14.80;99.90;;;;;;4998963;28;20009;-74
2022/09/14 01:58:08;;;;;;;;;;;14.80;99.90;;;;;;4967139;28;19926;-74
2022/09/14 02:00:36;;;;;;;;;;;14.80;99.90;;;;;;4967202;28;19930;-74
2022/09/14 02:03:05;;;;;;;;;;;14.80;99.90;;;;;;4967426;28;20024;-74
2022/09/14 02:05:37;;;;;;;;;;;14.80;99.90;;;;;;4965678;28;20012;-74
2022/09/14 02:08:03;;;;;;;;;;;14.80;99.90;;;;;;4967442;28;20345;-74
2022/09/14 02:10:28;;;;;;;;;;;14.80;99.90;;;;;;4967519;28;19984;-73
2022/09/14 02:12:54;;;;;;;;;;;14.70;99.90;;;;;;4981454;28;20342;-73
2022/09/14 02:15:20;;;;;;;;;;;14.70;99.90;;;;;;4967228;28;20377;-73
2022/09/14 02:17:46;;;;;;;;;;;14.80;99.90;;;;;;4966815;28;19934;-73
2022/09/14 02:20:19;;;;;;;;;;;14.80;99.90;;;;;;4966081;28;20269;-73
2022/09/14 02:22:45;;;;;;;;;;;14.80;99.90;;;;;;4965535;28;20000;-73
2022/09/14 02:25:10;;;;;;;;;;;14.80;99.90;;;;;;4966645;28;20017;-73
2022/09/14 02:27:36;;;;;;;;;;;14.70;99.90;;;;;;4975172;28;19925;-73
2022/09/14 02:30:02;;;;;;;;;;;14.70;99.90;;;;;;4986276;28;20300;-74
2022/09/14 02:32:27;;;;;;;;;;;14.60;99.90;;;;;;4986633;28;19929;-73
2022/09/14 02:34:59;;;;;;;;;;;14.70;99.90;;;;;;4979909;28;19937;-74
2022/09/14 02:37:24;;;;;;;;;;;14.60;99.90;;;;;;4966304;28;19926;-73
2022/09/14 02:39:56;;;;;;;;;;;14.60;99.90;;;;;;4966228;28;19933;-73
2022/09/14 02:42:24;;;;;;;;;;;14.60;99.90;;;;;;4966810;28;19980;-73
2022/09/14 02:44:49;;;;;;;;;;;14.60;99.90;;;;;;4968245;28;19965;-73
2022/09/14 02:47:30;;;;;;;;;;;14.60;99.90;;;;;;4980875;28;19975;-73
2022/09/14 02:50:06;;;;;;;;;;;14.60;99.90;;;;;;4964770;28;19932;-73
2022/09/14 02:52:39;;;;;;;;;;;14.60;99.90;;;;;;4966345;28;19935;-73
2022/09/14 02:55:05;;;;;;;;;;;14.60;99.90;;;;;;4965110;28;19926;-73
2022/09/14 02:57:30;;;;;;;;;;;14.50;99.90;;;;;;4966075;28;20340;-74
2022/09/14 02:59:56;;;;;;;;;;;14.60;99.90;;;;;;4966174;28;19926;-73
2022/09/14 03:02:21;;;;;;;;;;;14.60;99.90;;;;;;4966243;28;19976;-73
2022/09/14 03:04:47;;;;;;;;;;;14.60;99.90;;;;;;4964842;28;20397;-74
2022/09/14 03:07:12;;;;;;;;;;;14.60;99.90;;;;;;4966363;28;20344;-73
2022/09/14 03:09:38;;;;;;;;;;;14.50;99.90;;;;;;4966024;28;19973;-73
2022/09/14 03:12:03;;;;;;;;;;;14.50;99.90;;;;;;4966418;28;19933;-74
2022/09/14 03:14:29;;;;;;;;;;;14.50;99.90;;;;;;4965056;28;20448;-73
2022/09/14 03:16:54;;;;;;;;;;;14.60;99.90;;;;;;4966786;28;20580;-73
2022/09/14 03:19:20;;;;;;;;;;;14.60;99.90;;;;;;4984403;28;19984;-73
2022/09/14 03:21:45;;;;;;;;;;;14.60;99.90;;;;;;4985295;28;19995;-73
2022/09/14 03:24:10;;;;;;;;;;;14.60;99.90;;;;;;4984856;28;19934;-73
2022/09/14 03:26:37;;;;;;;;;;;14.60;99.90;;;;;;4984885;28;19926;-74
2022/09/14 03:29:03;;;;;;;;;;;14.50;99.90;;;;;;4984399;28;19925;-74
2022/09/14 03:31:29;;;;;;;;;;;14.60;99.90;;;;;;4985452;28;19933;-73
2022/09/14 03:33:55;;;;;;;;;;;14.60;99.90;;;;;;4984010;28;19926;-73
2022/09/14 03:36:21;;;;;;;;;;;14.60;99.90;;;;;;4968561;28;19926;-73
2022/09/14 03:38:51;;;;;;;;;;;14.60;99.90;;;;;;4965555;28;20012;-73
2022/09/14 03:41:17;;;;;;;;;;;14.60;99.90;;;;;;4965618;28;20002;-73
2022/09/14 03:43:42;;;;;;;;;;;14.60;99.90;;;;;;4965266;28;19926;-73
2022/09/14 03:46:09;;;;;;;;;;;14.60;99.90;;;;;;4965528;28;19926;-73
2022/09/14 03:48:35;;;;;;;;;;;14.60;99.90;;;;;;4979307;28;19925;-73
2022/09/14 03:51:01;;;;;;;;;;;14.60;99.90;;;;;;4983099;28;19976;-74
2022/09/14 03:53:26;;;;;;;;;;;14.70;99.90;;;;;;4985297;28;19926;-73
2022/09/14 03:55:52;;;;;;;;;;;14.60;99.90;;;;;;4984563;28;19972;-73
2022/09/14 03:58:17;;;;;;;;;;;14.70;99.90;;;;;;4984695;28;19977;-73
2022/09/14 04:00:43;;;;;;;;;;;14.60;99.90;;;;;;4984194;28;19972;-73
2022/09/14 04:03:08;;;;;;;;;;;14.70;99.90;;;;;;4983312;28;19980;-73
2022/09/14 04:05:34;;;;;;;;;;;14.70;99.90;;;;;;4982470;28;20021;-74
2022/09/14 04:07:59;;;;;;;;;;;14.60;99.90;;;;;;4983490;28;20925;-75
2022/09/14 04:10:25;;;;;;;;;;;14.60;99.90;;;;;;4983701;28;19926;-73
2022/09/14 04:12:50;;;;;;;;;;;14.60;99.90;;;;;;4983686;28;20341;-73
2022/09/14 04:15:16;;;;;;;;;;;14.60;99.90;;;;;;4982096;28;19926;-73
2022/09/14 04:17:41;;;;;;;;;;;14.60;99.90;;;;;;4976642;28;20480;-73
2022/09/14 04:20:07;;;;;;;;;;;14.60;99.90;;;;;;4961781;28;20020;-74
2022/09/14 04:22:33;;;;;;;;;;;14.70;99.90;;;;;;4964224;28;19976;-74
2022/09/14 04:24:58;;;;;;;;;;;14.60;99.90;;;;;;4964368;28;19961;-73
2022/09/14 04:27:24;;;;;;;;;;;14.60;99.90;;;;;;4963939;28;19926;-73
2022/09/14 04:29:49;;;;;;;;;;;14.60;99.90;;;;;;4962507;28;19933;-74
2022/09/14 04:32:15;;;;;;;;;;;14.70;99.90;;;;;;4964184;28;20270;-73
2022/09/14 04:34:41;;;;;;;;;;;14.60;99.90;;;;;;4993444;28;20070;-73
2022/09/14 04:37:06;;;;;;;;;;;14.60;99.90;;;;;;4963764;28;20428;-73
2022/09/14 04:39:32;;;;;;;;;;;14.60;99.90;;;;;;4977551;28;19926;-74
2022/09/14 04:41:57;;;;;;;;;;;14.70;99.90;;;;;;4966809;28;19932;-74
2022/09/14 04:44:22;;;;;;;;;;;14.60;99.90;;;;;;4963574;28;19926;-75
2022/09/14 04:46:48;;;;;;;;;;;14.60;99.90;;;;;;4963407;28;20005;-74
2022/09/14 04:49:15;;;;;;;;;;;14.70;99.90;;;;;;4963071;28;19927;-74
2022/09/14 04:51:40;;;;;;;;;;;14.70;99.90;;;;;;4963462;28;20413;-75
2022/09/14 04:54:06;;;;;;;;;;;14.70;99.90;;;;;;4963610;28;19929;-74
2022/09/14 04:56:33;;;;;;;;;;;14.70;99.90;;;;;;4963289;28;20678;-75
2022/09/14 04:59:00;;;;;;;;;;;14.70;99.90;;;;;;4964148;28;19940;-74
2022/09/14 05:01:27;;;;;;;;;;;14.70;99.90;;;;;;4962959;28;19933;-75
2022/09/14 05:03:53;;;;;;;;;;;14.70;99.90;;;;;;4892491;28;2014331;-74
2022/09/14 05:06:23;;;;;;;;;;;14.70;99.90;;;;;;4972222;28;20154;-76
2022/09/14 05:08:49;;;;;;;;;;;14.70;99.90;;;;;;4981700;28;19941;-74
2022/09/14 05:11:16;;;;;;;;;;;14.70;99.90;;;;;;4979417;28;19949;-73
2022/09/14 05:13:41;;;;;;;;;;;14.70;99.90;;;;;;4983273;28;20278;-73
2022/09/14 05:16:08;;;;;;;;;;;14.70;99.90;;;;;;4983515;28;19933;-75
2022/09/14 05:18:34;;;;;;;;;;;14.70;99.90;;;;;;4969874;28;20040;-75
2022/09/14 05:21:03;;;;;;;;;;;14.70;99.90;;;;;;4972930;28;19973;-76
2022/09/14 05:23:29;;;;;;;;;;;14.70;99.90;;;;;;4987415;28;20392;-75
2022/09/14 05:25:55;;;;;;;;;;;14.70;99.90;;;;;;4974946;28;19981;-75
2022/09/14 05:28:21;;;;;;;;;;;14.70;99.90;;;;;;4970427;28;19993;-75
2022/09/14 05:30:46;;;;;;;;;;;14.70;99.90;;;;;;4965337;28;20455;-76
2022/09/14 05:33:11;;;;;;;;;;;14.70;99.90;;;;;;4977623;28;19933;-74
2022/09/14 05:35:37;;;;;;;;;;;14.80;99.90;;;;;;4972735;28;20009;-75
2022/09/14 05:38:02;;;;;;;;;;;14.70;99.90;;;;;;4984162;28;19933;-76
2022/09/14 05:40:28;;;;;;;;;;;14.70;99.90;;;;;;4987032;28;20331;-75
2022/09/14 05:42:53;;;;;;;;;;;14.70;99.90;;;;;;4986818;28;19921;-75
2022/09/14 05:45:19;;;;;;;;;;;14.80;99.90;;;;;;4985228;28;19930;-75
2022/09/14 05:47:44;;;;;;;;;;;14.80;99.90;;;;;;4983296;28;19926;-75
2022/09/14 05:50:10;;;;;;;;;;;14.80;99.90;;;;;;4985408;28;19972;-75
2022/09/14 05:52:35;;;;;;;;;;;14.70;99.90;;;;;;4995248;28;19952;-75
2022/09/14 05:55:01;;;;;;;;;;;14.80;99.90;;;;;;4994820;28;20172;-75
2022/09/14 05:57:26;;;;;;;;;;;14.80;99.90;;;;;;5000188;28;19972;-74
2022/09/14 05:59:52;;;;;;;;;;;14.80;99.90;;;;;;4993975;28;20016;-75
2022/09/14 06:02:17;;;;;;;;;;;14.80;99.90;;;;;;4991850;28;20820;-75
2022/09/14 06:04:43;;;;;;;;;;;14.80;99.90;;;;;;4991373;28;19926;-75
2022/09/14 06:07:08;;;;;;;;;;;14.80;99.90;;;;;;4985284;28;19930;-75
2022/09/14 06:09:34;;;;;;;;;;;14.80;99.90;;;;;;4982255;28;19929;-76
2022/09/14 06:11:59;;;;;;;;;;;14.90;99.90;;;;;;4980385;28;19938;-81
2022/09/14 06:14:25;;;;;;;;;;;14.90;99.90;;;;;;4977668;28;19926;-78
2022/09/14 06:16:50;;;;;;;;;;;14.90;99.90;;;;;;4979252;28;19949;-78
2022/09/14 06:19:16;;;;;;;;;;;14.90;99.90;;;;;;4974058;28;20009;-77
2022/09/14 06:21:42;;;;;;;;;;;14.90;99.90;;;;;;4970419;28;19926;-78
2022/09/14 06:24:08;;;;;;;;;;;14.90;99.90;;;;;;4982087;28;19984;-74
2022/09/14 06:26:34;;;;;;;;;;;15.00;99.90;;;;;;4981477;28;19926;-76
2022/09/14 06:28:59;;;;;;;;;;;15.00;99.90;;;;;;4986056;28;19952;-78
2022/09/14 06:31:25;;;;;;;;;;;14.90;99.90;;;;;;4983262;28;19926;-76
2022/09/14 06:33:51;;;;;;;;;;;15.00;99.90;;;;;;4981471;28;20312;-75
2022/09/14 06:36:18;;;;;;;;;;;15.00;99.90;;;;;;4975828;28;20077;-75
2022/09/14 06:38:44;;;;;;;;;;;15.00;99.90;;;;;;4976732;28;19926;-76
2022/09/14 06:41:11;;;;;;;;;;;15.10;99.90;;;;;;4965617;28;19988;-75
2022/09/14 06:43:38;;;;;;;;;;;15.10;99.90;;;;;;4972136;28;19989;-75
2022/09/14 06:46:09;;;;;;;;;;;15.10;99.90;;;;;;4984891;28;19949;-76
2022/09/14 06:48:37;;;;;;;;;;;15.10;99.90;;;;;;4973490;28;20348;-76
2022/09/14 06:51:19;;;;;;;;;;;15.20;99.90;;;;;;4965578;28;19922;-76
2022/09/14 06:53:45;;;;;;;;;;;15.20;99.90;;;;;;4966936;28;20112;-76
2022/09/14 06:56:11;;;;;;;;;;;15.20;99.90;;;;;;4995496;28;20384;-75
2022/09/14 06:58:36;;;;;;;;;;;15.20;99.90;;;;;;4986818;28;19933;-75
2022/09/14 07:01:06;;;;;;;;;;;15.20;99.90;;;;;;4991280;28;20139;-76
2022/09/14 07:03:33;;;;;;;;;;;15.20;99.90;;;;;;4984951;28;20007;-76
2022/09/14 07:06:06;;;;;;;;;;;15.20;99.90;;;;;;5004421;28;19926;-78
2022/09/14 07:08:32;;;;;;;;;;;15.30;99.90;;;;;;4993278;28;20015;-76
2022/09/14 07:10:58;;;;;;;;;;;15.30;99.90;;;;;;4988549;28;20467;-76
2022/09/14 07:13:24;;;;;;;;;;;15.30;99.90;;;;;;4987139;28;20024;-75
2022/09/14 07:15:49;;;;;;;;;;;15.30;99.90;;;;;;4999044;28;20360;-74
2022/09/14 07:18:15;;;;;;;;;;;15.30;99.90;;;;;;4984421;28;20331;-75
2022/09/14 07:20:40;;;;;;;;;;;15.40;99.90;;;;;;4982639;28;19926;-76
2022/09/14 07:23:06;;;;;;;;;;;15.40;99.90;;;;;;4983198;28;19925;-76
2022/09/14 07:25:31;;;;;;;;;;;15.40;99.90;;;;;;4982512;28;20469;-76
2022/09/14 07:27:59;;;;;;;;;;;15.40;99.90;;;;;;4984614;28;19929;-75
2022/09/14 07:30:26;;;;;;;;;;;15.40;99.90;;;;;;4983242;28;20372;-75
2022/09/14 07:32:52;;;;;;;;;;;15.50;99.90;;;;;;4983743;28;20016;-75
2022/09/14 07:35:17;;;;;;;;;;;15.50;99.90;;;;;;4982809;28;20013;-75
2022/09/14 07:37:43;;;;;;;;;;;15.50;99.90;;;;;;4983080;28;19933;-75
2022/09/14 07:40:09;;;;;;;;;;;15.60;99.90;;;;;;4983743;28;20273;-75
2022/09/14 07:42:36;;;;;;;;;;;15.60;99.90;;;;;;4981684;28;19926;-76
2022/09/14 07:45:02;;;;;;;;;;;15.60;99.90;;;;;;4982938;28;19925;-76
2022/09/14 07:47:28;;;;;;;;;;;15.70;99.90;;;;;;4983637;28;20363;-75
2022/09/14 07:49:53;;;;;;;;;;;15.80;99.90;;;;;;4982463;28;20024;-76
2022/09/14 07:52:19;;;;;;;;;;;15.80;99.90;;;;;;4983928;28;20293;-75
2022/09/14 07:54:45;;;;;;;;;;;15.90;99.90;;;;;;4982953;28;20281;-75
2022/09/14 07:57:11;;;;;;;;;;;15.90;99.90;;;;;;4983380;28;20485;-76
2022/09/14 07:59:37;;;;;;;;;;;15.90;99.90;;;;;;4983405;28;19930;-76
2022/09/14 08:02:06;;;;;;;;;;;15.90;99.90;;;;;;4983131;28;20012;-76
2022/09/14 08:04:32;;;;;;;;;;;16.00;99.90;;;;;;4982245;28;20324;-76
2022/09/14 08:06:58;;;;;;;;;;;15.90;99.90;;;;;;4983512;28;19933;-76
2022/09/14 08:09:24;;;;;;;;;;;16.00;99.90;;;;;;4982924;28;19926;-75
2022/09/14 08:11:50;;;;;;;;;;;16.10;99.90;;;;;;4982736;28;19977;-75
2022/09/14 08:14:15;;;;;;;;;;;16.10;99.90;;;;;;4982993;28;19977;-76
2022/09/14 08:16:41;;;;;;;;;;;16.10;99.90;;;;;;4982851;28;19972;-76
2022/09/14 08:19:11;;;;;;;;;;;16.20;99.90;;;;;;4981871;28;19937;-75
2022/09/14 08:21:36;;;;;;;;;;;16.20;99.90;;;;;;4981264;28;19932;-76
2022/09/14 08:24:03;;;;;;;;;;;16.20;99.90;;;;;;4982805;28;19925;-76
2022/09/14 08:26:28;;;;;;;;;;;16.30;99.90;;;;;;4983241;28;20272;-75
2022/09/14 08:28:54;;;;;;;;;;;16.30;99.90;;;;;;4982779;28;20012;-75
2022/09/14 08:31:21;;;;;;;;;;;16.30;99.90;;;;;;4982959;28;19953;-76
2022/09/14 08:33:48;;;;;;;;;;;16.40;99.90;;;;;;4981302;28;19933;-75
2022/09/14 08:36:16;;;;;;;;;;;16.40;99.90;;;;;;4966897;28;19926;-75
2022/09/14 08:38:42;;;;;;;;;;;16.40;99.90;;;;;;4962896;28;19926;-76
2022/09/14 08:41:10;;;;;;;;;;;16.40;99.90;;;;;;4962902;28;20021;-76
2022/09/14 08:43:37;;;;;;;;;;;16.40;99.90;;;;;;4963005;28;19933;-75
2022/09/14 08:46:04;;;;;;;;;;;16.50;99.90;;;;;;4962954;28;19930;-76
2022/09/14 08:48:32;;;;;;;;;;;16.50;99.90;;;;;;4962606;28;19926;-76
2022/09/14 08:50:58;;;;;;;;;;;16.60;99.90;;;;;;4962389;28;19923;-75
2022/09/14 08:53:24;;;;;;;;;;;16.60;99.90;;;;;;4963000;28;19926;-75
2022/09/14 08:56:01;;;;;;;;;;;16.60;99.90;;;;;;4962857;28;20134;-76
2022/09/14 08:58:29;;;;;;;;;;;16.60;99.90;;;;;;4962204;28;19976;-75
2022/09/14 09:01:11;;;;;;;;;;;16.60;99.90;;;;;;4961989;28;20398;-75
2022/09/14 09:03:54;;;;;;;;;;;16.70;99.90;;;;;;4960221;28;20022;-76
2022/09/14 09:06:43;;;;;;;;;;;16.70;99.90;;;;;;4961987;28;19934;-76
2022/09/14 09:09:19;;;;;;;;;;;16.70;99.90;;;;;;4951822;28;20385;-75
2022/09/14 09:11:47;;;;;;;;;;;16.70;99.90;;;;;;4962543;28;19926;-76
2022/09/14 09:14:15;;;;;;;;;;;16.80;99.90;;;;;;4963072;28;20316;-75
2022/09/14 09:16:41;;;;;;;;;;;16.80;99.90;;;;;;4993932;28;20004;-75
2022/09/14 09:19:10;;;;;;;;;;;16.80;99.90;;;;;;4993274;28;19958;-75
2022/09/14 09:21:42;;;;;;;;;;;16.90;99.90;;;;;;4961139;28;19981;-76
2022/09/14 09:24:21;;;;;;;;;;;16.90;99.90;;;;;;4962580;28;19949;-76
2022/09/14 09:26:46;;;;;;;;;;;16.90;99.90;;;;;;4964583;28;19933;-75
2022/09/14 09:29:12;;;;;;;;;;;17.00;99.90;;;;;;4980972;28;19925;-75
2022/09/14 09:31:44;;;;;;;;;;;17.00;99.90;;;;;;4982551;28;19952;-75
2022/09/14 09:34:14;;;;;;;;;;;17.00;99.90;;;;;;4982234;28;19925;-74
2022/09/14 09:36:41;;;;;;;;;;;17.00;99.90;;;;;;4961466;28;19933;-75
2022/09/14 09:39:07;;;;;;;;;;;17.00;99.90;;;;;;4977876;28;20006;-75
2022/09/14 09:41:47;;;;;;;;;;;17.00;99.90;;;;;;4971009;28;19959;-75
2022/09/14 09:44:12;;;;;;;;;;;17.00;99.90;;;;;;4962745;28;19949;-75
2022/09/14 09:46:46;;;;;;;;;;;17.10;99.90;;;;;;4963314;28;19926;-75
2022/09/14 09:49:23;;;;;;;;;;;17.10;99.90;;;;;;4963194;28;20273;-75
2022/09/14 09:51:49;;;;;;;;;;;17.00;99.90;;;;;;4962645;28;19932;-75
2022/09/14 09:54:14;;;;;;;;;;;17.00;99.90;;;;;;4962411;28;19926;-75
2022/09/14 09:56:50;;;;;;;;;;;17.00;99.90;;;;;;4962409;28;20481;-74
2022/09/14 09:59:34;;;;;;;;;;;17.10;99.90;;;;;;4963604;28;19927;-75
2022/09/14 10:02:20;;;;;;;;;;;17.00;99.90;;;;;;4962673;28;20407;-73
2022/09/14 10:04:55;;;;;;;;;;;17.00;99.90;;;;;;4962196;28;19953;-73
2022/09/14 10:07:21;;;;;;;;;;;17.10;99.90;;;;;;4965844;28;19974;-73
2022/09/14 10:09:55;;;;;;;;;;;17.10;99.90;;;;;;4967716;28;19929;-73
2022/09/14 10:12:21;;;;;;;;;;;17.10;99.90;;;;;;4967167;28;20408;-73
2022/09/14 10:14:46;;;;;;;;;;;17.10;99.90;;;;;;4949401;28;19926;-73
2022/09/14 10:17:16;;;;;;;;;;;17.20;99.90;;;;;;4982182;28;19922;-73
2022/09/14 10:19:50;;;;;;;;;;;17.20;99.90;;;;;;4985251;28;19925;-72
2022/09/14 10:22:26;;;;;;;;;;;17.20;99.90;;;;;;4986305;28;19969;-72
2022/09/14 10:24:58;;;;;;;;;;;17.20;99.90;;;;;;4971627;28;19966;-73
2022/09/14 10:27:30;;;;;;;;;;;17.20;99.90;;;;;;4982482;28;19953;-72
2022/09/14 10:29:56;;;;;;;;;;;17.20;99.90;;;;;;4985259;28;19926;-73
2022/09/14 10:32:24;;;;;;;;;;;17.20;99.90;;;;;;4986235;28;19926;-73
2022/09/14 10:34:53;;;;;;;;;;;17.20;99.90;;;;;;4979873;28;20267;-73
2022/09/14 10:37:18;;;;;;;;;;;17.20;99.90;;;;;;4967064;28;19926;-73
2022/09/14 10:40:15;;;;;;;;;;;17.20;99.90;;;;;;4949133;28;19980;-73
2022/09/14 10:42:46;;;;;;;;;;;17.20;99.90;;;;;;4965663;28;19927;-75
2022/09/14 10:45:13;;;;;;;;;;;17.20;99.90;;;;;;4966191;28;19972;-75
2022/09/14 10:47:57;;;;;;;;;;;17.20;99.90;;;;;;4965588;28;19936;-75
2022/09/14 10:50:32;;;;;;;;;;;17.20;99.90;;;;;;4966575;28;19996;-75
2022/09/14 10:53:17;;;;;;;;;;;17.30;99.90;;;;;;4964744;28;19926;-73
2022/09/14 10:56:04;;;;;;;;;;;17.30;99.90;;;;;;4971778;28;20014;-73
2022/09/14 10:58:30;;;;;;;;;;;17.40;99.90;;;;;;4985324;28;19926;-73
2022/09/14 11:01:04;;;;;;;;;;;17.50;99.90;;;;;;4986202;28;19932;-72
2022/09/14 11:03:48;;;;;;;;;;;17.50;99.90;;;;;;4983547;28;19933;-73
2022/09/14 11:06:20;;;;;;;;;;;17.50;99.90;;;;;;4985707;28;20292;-73
2022/09/14 11:08:59;;;;;;;;;;;17.60;99.90;;;;;;4984376;28;19926;-73
2022/09/14 11:11:36;;;;;;;;;;;17.60;99.90;;;;;;4970734;28;20711;-72
2022/09/14 11:14:01;;;;;;;;;;;17.70;99.90;;;;;;4964891;28;20412;-73
2022/09/14 11:16:46;;;;;;;;;;;17.70;99.90;;;;;;4966275;28;19926;-73
2022/09/14 11:19:12;;;;;;;;;;;17.80;99.90;;;;;;4962381;28;19926;-73
2022/09/14 11:21:37;;;;;;;;;;;17.80;99.90;;;;;;4965851;28;19933;-73
2022/09/14 11:24:10;;;;;;;;;;;17.80;99.90;;;;;;4965961;28;19988;-73
2022/09/14 11:26:56;;;;;;;;;;;17.80;99.90;;;;;;4964771;28;19981;-73
2022/09/14 11:29:25;;;;;;;;;;;17.80;99.90;;;;;;4965725;28;19980;-73
2022/09/14 11:31:52;;;;;;;;;;;17.80;99.90;;;;;;4965331;28;20017;-72
2022/09/14 11:34:18;;;;;;;;;;;17.80;99.90;;;;;;4963698;28;20032;-73
2022/09/14 11:36:47;;;;;;;;;;;17.80;99.90;;;;;;4973753;28;20009;-73
2022/09/14 11:39:21;;;;;;;;;;;17.80;99.90;;;;;;4965238;28;19937;-75
2022/09/14 11:41:49;;;;;;;;;;;17.80;99.90;;;;;;4965884;28;19933;-73
2022/09/14 11:44:18;;;;;;;;;;;17.90;99.90;;;;;;4965252;28;19926;-73
2022/09/14 11:46:45;;;;;;;;;;;17.90;99.90;;;;;;4982157;28;19965;-73
2022/09/14 11:49:17;;;;;;;;;;;18.00;99.90;;;;;;4983152;28;20399;-73
2022/09/14 11:51:48;;;;;;;;;;;18.00;99.90;;;;;;4968790;28;19962;-73
2022/09/14 11:54:16;;;;;;;;;;;18.10;99.90;;;;;;4965369;28;19933;-73
2022/09/14 11:56:42;;;;;;;;;;;18.10;99.90;;;;;;4978869;28;20324;-73
2022/09/14 11:59:28;;;;;;;;;;;18.10;99.90;;;;;;4984024;28;19929;-74
2022/09/14 12:01:54;;;;;;;;;;;18.10;99.90;;;;;;4974280;28;19926;-73
2022/09/14 12:04:19;;;;;;;;;;;18.10;99.90;;;;;;4964446;28;19992;-73
2022/09/14 12:06:49;;;;;;;;;;;18.10;99.90;;;;;;4981680;28;19978;-73
2022/09/14 12:09:23;;;;;;;;;;;18.10;99.90;;;;;;4982665;28;19933;-73
2022/09/14 12:11:49;;;;;;;;;;;18.10;99.90;;;;;;4983495;28;20289;-73
2022/09/14 12:14:30;;;;;;;;;;;18.10;99.90;;;;;;4969822;28;20009;-74
2022/09/14 12:17:03;;;;;;;;;;;18.10;99.90;;;;;;4969468;28;19933;-74
2022/09/14 12:19:29;;;;;;;;;;;18.20;99.90;;;;;;4982709;28;19926;-74
2022/09/14 12:21:54;;;;;;;;;;;18.20;99.90;;;;;;4984219;28;20400;-74
2022/09/14 12:24:21;;;;;;;;;;;18.20;99.90;;;;;;4973271;28;19938;-74
2022/09/14 12:26:47;;;;;;;;;;;18.30;99.90;;;;;;4977275;28;20435;-75
2022/09/14 12:29:42;;;;;;;;;;;18.30;99.90;;;;;;4969528;28;19922;-75
2022/09/14 12:32:23;;;;;;;;;;;18.30;99.90;;;;;;4975120;28;19934;-73
2022/09/14 12:35:08;;;;;;;;;;;18.30;99.90;;;;;;4977311;28;19926;-73
2022/09/14 12:37:34;;;;;;;;;;;18.30;99.90;;;;;;4993537;28;19932;-74
2022/09/14 12:40:32;;;;;;;;;;;18.20;99.90;;;;;;4975625;28;19921;-74
2022/09/14 12:43:17;;;;;;;;;;;18.20;99.90;;;;;;4970349;28;19933;-73
2022/09/14 12:45:46;;;;;;;;;;;18.20;99.90;;;;;;4977084;28;19979;-73
2022/09/14 12:48:32;;;;;;;;;;;18.20;99.90;;;;;;4981974;28;20407;-73
2022/09/14 12:50:57;;;;;;;;;;;18.20;99.90;;;;;;4965261;28;20312;-74
2022/09/14 12:53:26;;;;;;;;;;;18.20;99.90;;;;;;4976863;28;19938;-73
2022/09/14 12:55:57;;;;;;;;;;;18.20;99.90;;;;;;4973821;28;19969;-73
2022/09/14 12:58:33;;;;;;;;;;;18.20;99.90;;;;;;4983985;28;19933;-73
2022/09/14 13:01:25;;;;;;;;;;;18.10;99.90;;;;;;4983990;28;19933;-73
2022/09/14 13:03:53;;;;;;;;;;;18.10;99.90;;;;;;4982359;28;19925;-72
2022/09/14 13:06:19;;;;;;;;;;;18.10;99.90;;;;;;5003070;28;19925;-74
2022/09/14 13:08:46;;;;;;;;;;;18.20;99.90;;;;;;4992689;28;19954;-74
2022/09/14 13:11:18;;;;;;;;;;;18.20;99.90;;;;;;4987655;28;20560;-74
2022/09/14 13:13:44;;;;;;;;;;;18.20;99.90;;;;;;4986713;28;19929;-74
2022/09/14 13:16:14;;;;;;;;;;;18.30;99.90;;;;;;4982006;28;20300;-74
2022/09/14 13:18:40;;;;;;;;;;;18.30;99.90;;;;;;4976785;28;20004;-73
2022/09/14 13:21:32;;;;;;;;;;;18.30;99.90;;;;;;4971780;28;20377;-73
2022/09/14 13:23:57;;;;;;;;;;;18.40;99.90;;;;;;4988328;28;19980;-74
2022/09/14 13:26:27;;;;;;;;;;;18.30;99.90;;;;;;4973779;28;19926;-74
2022/09/14 13:28:54;;;;;;;;;;;18.40;99.90;;;;;;4973627;28;20407;-73
2022/09/14 13:31:22;;;;;;;;;;;18.50;99.90;;;;;;4972266;28;20317;-79
2022/09/14 13:33:49;;;;;;;;;;;18.50;99.90;;;;;;4973900;28;19933;-78
2022/09/14 13:36:19;;;;;;;;;;;18.40;99.90;;;;;;4978830;28;20064;-78
2022/09/14 13:38:45;;;;;;;;;;;18.40;99.90;;;;;;4971013;28;20353;-77
2022/09/14 13:41:14;;;;;;;;;;;18.50;99.90;;;;;;4975534;28;20000;-78
2022/09/14 13:43:40;;;;;;;;;;;18.50;99.90;;;;;;4980199;28;19976;-76
2022/09/14 13:46:06;;;;;;;;;;;18.50;99.90;;;;;;4986304;28;19929;-78
2022/09/14 13:48:32;;;;;;;;;;;18.50;99.90;;;;;;4973512;28;19933;-78
2022/09/14 13:50:58;;;;;;;;;;;18.60;99.90;;;;;;4976820;28;20349;-78
2022/09/14 13:53:42;;;;;;;;;;;18.70;99.90;;;;;;4973487;28;20013;-79
2022/09/14 13:56:21;;;;;;;;;;;18.70;99.90;;;;;;4974977;28;19954;-79
2022/09/14 13:58:48;;;;;;;;;;;18.70;99.90;;;;;;4976594;28;20292;-79
2022/09/14 14:01:22;;;;;;;;;;;18.70;99.90;;;;;;4975038;28;19936;-79
2022/09/14 14:03:48;;;;;;;;;;;18.80;99.90;;;;;;4982726;28;19929;-79
2022/09/14 14:06:27;;;;;;;;;;;18.80;99.90;;;;;;4989049;28;20769;-78
2022/09/14 14:08:55;;;;;;;;;;;18.80;99.90;;;;;;4986664;28;20392;-78
2022/09/14 14:11:29;;;;;;;;;;;18.80;99.90;;;;;;4995959;28;19965;-78
2022/09/14 14:13:55;;;;;;;;;;;18.80;99.90;;;;;;4978853;28;19933;-78
2022/09/14 14:16:21;;;;;;;;;;;18.80;99.90;;;;;;4967033;28;19927;-78
2022/09/14 14:18:51;;;;;;;;;;;18.80;99.90;;;;;;4990966;28;20016;-78
2022/09/14 14:21:29;;;;;;;;;;;18.70;99.90;;;;;;4990571;28;19933;-79
2022/09/14 14:24:13;;;;;;;;;;;18.70;99.90;;;;;;4977827;28;19926;-78
2022/09/14 14:26:46;;;;;;;;;;;18.60;99.90;;;;;;4985605;28;19926;-78